ADDS METAR Data INFO
IDs: Format: Raw Decoded Include TAF

Data at: 0025 UTC 17 Dec 2017

KEUG 162354Z VRB03KT 10SM FEW025 BKN045 OVC075 07/04 A3034 RMK AO2 SLP276 T00720039 10072 20022 56006
KEUG 162254Z 00000KT 10SM FEW030 BKN047 BKN080 07/04 A3034 RMK AO2 SLP276 T00720039
KEUG 162154Z 21004KT 10SM FEW020 SCT033 BKN090 07/04 A3034 RMK AO2 SLP277 T00720039
KEUG 162054Z 20003KT 10SM FEW019 SCT033 BKN095 06/04 A3036 RMK AO2 SLP282 T00610044 58017
KEUG 161954Z 20004KT 10SM SCT032 BKN100 BKN240 05/04 A3038 RMK AO2 SLP291 T00500039
KEUG 161854Z 17003KT 9SM BKN036 BKN090 OVC130 04/03 A3041 RMK AO2 SLP302 T00390033
KEUG 161754Z 17005KT 9SM FEW035 SCT055 BKN140 02/02 A3041 RMK AO2 SLP301 I6000 T00220022 10022 21022 53009
KEUG 161654Z 14003KT 10SM FEW037 BKN055 BKN090 01/01 A3039 RMK AO2 SLP294 T00060006
KEUG 161554Z 15005KT 9SM BKN043 BKN140 00/00 A3037 RMK AO2 SLP290 T00000000
KEUG 161454Z 22004KT 7SM BKN041 BKN120 M01/M01 A3038 RMK AO2 SLP291 I3000 T10061006 55003
KEUG 161354Z 18005KT 6SM BR BKN043 OVC120 M01/M01 A3037 RMK AO2 SLP289 I1000 T10061006
KEUG 161254Z AUTO 21005KT 6SM BR BKN044 OVC120 M01/M01 A3038 RMK AO2 SLP291 T10111011
KEUG 161208Z AUTO 17004KT 3SM BR BKN050 M02/M02 A3039 RMK AO2 VIS 2 1/2 RNW 34 T10171017
KEUG 161159Z AUTO 17003KT 2SM BR FEW003 BKN050 M02/M02 A3039 RMK AO2 T10221022
KEUG 161154Z AUTO 18003KT 1SM R16R/3000VP6000FT BR FEW003 SCT050 M02/M02 A3039 RMK AO2 SLP294 I6001 T10221022 10011 21033 58001
KEUG 161136Z AUTO 19005KT 1/2SM R16R/2400V3500FT FZFG VV003 M03/M03 A3039 RMK AO2 T10281028
KEUG 161129Z AUTO 20005KT 1SM R16R/2400V4000FT BR VV003 M02/M02 A3039 RMK AO2 T10221022
KEUG 161126Z AUTO 19004KT 2 1/2SM R16R/2600VP6000FT BR FEW003 M02/M02 A3039 RMK AO2 T10221022
KEUG 161054Z AUTO 16004KT 4SM BR CLR M01/M01 A3040 RMK AO2 SLP296 T10111011
KEUG 161051Z AUTO 16004KT 4SM BR CLR M01/M01 A3040 RMK AO2
KEUG 161043Z AUTO 16004KT 2SM R16R/3500VP6000FT BR FEW003 M02/M02 A3040 RMK AO2 T10171017
KEUG 161040Z AUTO 16005KT 1 1/4SM R16R/3500VP6000FT BR FEW003 M02/M02 A3040 RMK AO2 T10221022
KEUG 161016Z AUTO 16003KT 3/4SM R16R/3500VP6000FT BR VV002 M02/M02 A3039 RMK AO2 T10171017
KEUG 160954Z AUTO 17004KT 1/2SM R16R/2000V3500FT FZFG BKN001 OVC055 M02/M02 A3039 RMK AO2 SLP295 I1000 T10171017
KEUG 160952Z AUTO 16004KT 1/2SM R16R/2000V3500FT FZFG BKN001 BKN055 M02/M02 A3039 RMK AO2 I1000
KEUG 160935Z AUTO 15005KT 1/4SM R16R/1800VP6000FT FZFG VV001 M03/M03 A3039 RMK AO2 I1000 T10281028
KEUG 160930Z AUTO 14005KT 3/4SM R16R/P6000FT BR VV002 M03/M03 A3039 RMK AO2 I1000 T10281028
KEUG 160927Z AUTO 16005KT 1 3/4SM BR FEW002 M02/M02 A3039 RMK AO2 VIS 3/4 RNW 34 I1000 T10221022
KEUG 160922Z AUTO 16004KT 3SM BR FEW002 M02/M02 A3038 RMK AO2 VIS 3/4 RNW 34 T10221022
KEUG 160919Z AUTO 19005KT 1 1/2SM BR FEW002 M02/M02 A3038 RMK AO2 VIS 3/4 RNW 34 T10221022
KEUG 160912Z AUTO 18004KT 3/4SM R16R/P6000FT BR VV002 M03/M03 A3038 RMK AO2 T10331033
KEUG 160909Z AUTO 15004KT 1 1/4SM BR FEW002 M03/M03 A3038 RMK AO2 T10281028
KEUG 160854Z AUTO 20005KT 9SM FEW002 M02/M02 A3038 RMK AO2 SLP290 I3001 T10221022 53002
KEUG 160851Z AUTO 20005KT 9SM FEW002 M02/M02 A3038 RMK AO2
KEUG 160843Z AUTO 22006KT 2SM BR FEW002 M03/M03 A3038 RMK AO2 T10281028
KEUG 160840Z AUTO 23006KT 1 1/4SM BR FEW002 M03/M03 A3038 RMK AO2 T10281028
KEUG 160824Z AUTO 20004KT 1/2SM R16R/2000V3500FT FZFG VV002 M02/M02 A3037 RMK AO2 T10221022
KEUG 160808Z AUTO 19003KT 1/4SM R16R/1400V2400FT FZFG VV002 M02/M02 A3037 RMK AO2 T10221022
KEUG 160806Z AUTO 19004KT 1/4SM R16R/1400V2000FT FZFG VV001 M02/M02 A3037 RMK AO2 T10221022
KEUG 160754Z AUTO 15003KT 1/4SM R16R/1600V3000FT FZFG VV002 M02/M02 A3037 RMK AO2 SLP287 I1001 T10171017 400441033
KEUG 160734Z AUTO 00000KT 3/4SM R16R/2200V4500FT BR VV002 M02/M02 A3037 RMK AO2 I1000 T10171017
KEUG 160725Z 16003KT 1SM R16R/3000VP6000FT BR FEW002 M02/M02 A3037 RMK AO2 I1000 T10171017
KEUG 160717Z 19004KT 2 1/2SM R16R/3000VP6000FT BR FEW040 M02/M02 A3037 RMK AO2 I1000 T10171017
KEUG 160654Z 20005KT 3SM BR FEW040 M01/M01 A3037 RMK AO2 SLP288 T10111011
KEUG 160554Z 15004KT 4SM BR FEW045 SCT080 00/00 A3036 RMK AO2 SLP284 60000 T00000000 10044 20000 51011
KEUG 160454Z 19004KT 5SM BR FEW050 BKN100 01/01 A3036 RMK AO2 SLP284 T00110011
KEUG 160354Z 18004KT 6SM BR BKN055 BKN080 01/01 A3034 RMK AO2 SLP279 T00110011
KEUG 160254Z 00000KT 7SM FEW040 01/01 A3033 RMK AO2 RAE11 SLP273 P0000 60000 T00060006 53009
KEUG 160154Z 00000KT 8SM -RA SCT038 BKN048 BKN060 03/03 A3031 RMK AO2 SLP269 P0000 T00280028
KEUG 160054Z 00000KT 10SM FEW017 BKN050 BKN150 03/03 A3030 RMK AO2 SLP264 T00280028
KEUG 152354Z 00000KT 10SM FEW015 BKN030 BKN150 04/03 A3030 RMK AO2 SLP264 T00440033 10044 20011 53006
KEUG 152254Z 17003KT 10SM SCT015 BKN025 OVC035 04/03 A3028 RMK AO2 SLP258 T00390028
KEUG 152154Z 18005KT 10SM OVC019 03/02 A3028 RMK AO2 SLP256 T00330022
KEUG 152054Z 17004KT 10SM OVC023 03/02 A3028 RMK AO2 SLP257 T00280017 55011
KEUG 151954Z 18004KT 9SM SCT026 BKN028 OVC085 03/02 A3027 RMK AO2 SLP255 T00280017
KEUG 151933Z 17005KT 9SM OVC028 02/01 A3029 RMK AO2 T00220011
KEUG 151854Z 15004KT 9SM OVC030 02/01 A3031 RMK AO2 SLP269 T00170011
KEUG 151754Z 00000KT 10SM OVC032 01/01 A3031 RMK AO2 SLP269 T00110006 10011 21033 53018
KEUG 151654Z 28003KT 9SM FEW034 OVC044 M01/M01 A3029 RMK AO2 PRESRR SLP262 T10061006
KEUG 151554Z 26003KT 8SM BKN070 OVC250 M02/M02 A3027 RMK AO2 SLP252 T10171017
KEUG 151454Z 20003KT 10SM BKN250 M03/M03 A3026 RMK AO2 SLP250 T10331033 56004
KEUG 151354Z 11004KT 10SM BKN240 M03/M03 A3027 RMK AO2 SLP253 T10281033
KEUG 151254Z AUTO 21004KT 10SM CLR M03/M03 A3026 RMK AO2 SLP251 T10281028